Terminal Aerodrome Forecast
Issued by NWS

Home | Current Version | Previous Version | Text Only | Print | Product List | Glossary On
Versions: 1 2 3 4 5 6 7 8 9 10 11 12 13
000
FTUS43 KLSX 040520
TAFSUS
TAF
KSUS 040520Z 0406/0506 00000KT P6SM FEW100
     FM040800 00000KT 5SM BR SKC
      TEMPO 0408/0411 1SM BR
     FM041200 VRB03KT P6SM SKC
     FM041800 20005KT P6SM FEW050=

USA.gov is the U.S. government's official web portal to all federal, state and local government web resources and services.